Time,TemperatureF,DewpointF,PressureIn,WindDirection,WindDirectionDegrees,WindSpeedMPH,WindSpeedGustMPH,Humidity,HourlyPrecipIn,Conditions,Clouds,dailyrainin,SoftwareType,DateUTC
2013-04-28 00:00:00,44.8,40.8,30.31,SE,127,0.0,0.0,86,0.00,CLR,,0.00,WeatherDisplay:10.37,2013-04-28 04:00:00,
2013-04-28 00:15:00,44.4,41.1,30.31,East,90,0.0,0.0,88,0.00,CLR,,0.00,WeatherDisplay:10.37,2013-04-28 04:15:00,
2013-04-28 00:30:00,44.4,41.1,30.31,East,90,0.0,0.0,88,0.00,CLR,,0.00,WeatherDisplay:10.37,2013-04-28 04:30:00,
2013-04-28 00:45:00,44.1,41.0,30.31,East,90,0.0,0.0,89,0.00,CLR,,0.00,WeatherDisplay:10.37,2013-04-28 04:45:00,
2013-04-28 01:00:00,43.7,40.7,30.31,East,90,0.0,0.0,89,0.00,CLR,,0.00,WeatherDisplay:10.37,2013-04-28 05:00:00,
2013-04-28 01:15:00,43.0,40.0,30.31,East,90,0.0,0.0,89,0.00,CLR,,0.00,WeatherDisplay:10.37,2013-04-28 05:15:00,
2013-04-28 01:30:00,42.8,39.8,30.31,East,90,0.0,0.0,89,0.00,CLR,,0.00,WeatherDisplay:10.37,2013-04-28 05:30:00,
2013-04-28 01:45:00,42.3,39.8,30.31,East,90,0.0,0.0,91,0.00,CLR,,0.00,WeatherDisplay:10.37,2013-04-28 05:45:00,
2013-04-28 02:00:00,42.3,39.8,30.31,East,90,0.0,0.0,91,0.00,CLR,,0.00,WeatherDisplay:10.37,2013-04-28 06:00:00,
2013-04-28 02:15:00,41.9,39.5,30.31,East,90,0.0,0.0,91,0.00,CLR,,0.00,WeatherDisplay:10.37,2013-04-28 06:15:00,
2013-04-28 02:30:00,42.1,39.9,30.31,East,90,0.0,0.0,92,0.00,CLR,,0.00,WeatherDisplay:10.37,2013-04-28 06:30:00,
2013-04-28 02:45:00,41.7,39.6,30.28,East,90,0.0,0.0,92,0.00,CLR,,0.00,WeatherDisplay:10.37,2013-04-28 06:45:00,
2013-04-28 03:00:00,41.5,39.7,30.28,East,90,0.0,0.0,93,0.00,CLR,,0.00,WeatherDisplay:10.37,2013-04-28 07:00:00,
2013-04-28 03:15:00,41.5,39.7,30.28,East,90,0.0,0.0,93,0.00,CLR,,0.00,WeatherDisplay:10.37,2013-04-28 07:15:00,
2013-04-28 03:30:00,41.2,39.3,30.28,East,90,0.0,0.0,93,0.00,CLR,,0.00,WeatherDisplay:10.37,2013-04-28 07:30:00,
2013-04-28 03:45:00,40.6,39.0,30.28,East,90,0.0,0.0,94,0.00,CLR,,0.00,WeatherDisplay:10.37,2013-04-28 07:45:00,
2013-04-28 04:00:00,40.6,39.0,30.28,East,90,0.0,0.0,94,0.00,CLR,,0.00,WeatherDisplay:10.37,2013-04-28 08:00:00,
2013-04-28 04:15:00,40.5,38.9,30.28,East,90,0.0,0.0,94,0.00,CLR,,0.00,WeatherDisplay:10.37,2013-04-28 08:15:00,
2013-04-28 04:30:00,40.5,38.9,30.28,East,90,0.0,0.0,94,0.00,CLR,,0.00,WeatherDisplay:10.37,2013-04-28 08:30:00,
2013-04-28 04:45:00,40.5,39.1,30.28,East,90,0.0,0.0,95,0.00,CLR,,0.00,WeatherDisplay:10.37,2013-04-28 08:45:00,
2013-04-28 05:00:00,40.3,39.0,30.28,East,90,0.0,0.0,95,0.00,CLR,,0.00,WeatherDisplay:10.37,2013-04-28 09:00:00,
2013-04-28 05:15:00,39.7,38.4,30.28,East,90,0.0,0.0,95,0.00,CLR,,0.00,WeatherDisplay:10.37,2013-04-28 09:15:00,
2013-04-28 05:30:00,39.6,38.2,30.28,East,90,0.0,0.0,95,0.00,CLR,,0.00,WeatherDisplay:10.37,2013-04-28 09:30:00,
2013-04-28 05:45:00,39.4,38.1,30.28,East,90,0.0,0.0,95,0.00,CLR,,0.00,WeatherDisplay:10.37,2013-04-28 09:45:00,
2013-04-28 06:00:00,39.2,37.9,30.28,East,90,0.0,0.0,95,0.00,CLR,,0.00,WeatherDisplay:10.37,2013-04-28 10:00:00,
2013-04-28 06:15:00,38.7,37.6,30.28,East,90,0.0,0.0,96,0.00,CLR,,0.00,WeatherDisplay:10.37,2013-04-28 10:15:00,
2013-04-28 06:30:00,38.8,38.1,30.28,East,90,0.0,0.0,97,0.00,CLR,,0.00,WeatherDisplay:10.37,2013-04-28 10:30:00,
2013-04-28 06:45:00,39.9,39.1,30.28,East,90,0.0,0.0,97,0.00,CLR,,0.00,WeatherDisplay:10.37,2013-04-28 10:45:00,
2013-04-28 07:00:00,41.0,40.5,30.31,East,90,0.0,0.0,98,0.00,CLR,,0.00,WeatherDisplay:10.37,2013-04-28 11:00:00,
2013-04-28 07:15:00,44.2,44.2,30.31,East,90,0.0,0.0,100,0.00,CLR,,0.00,WeatherDisplay:10.37,2013-04-28 11:15:00,
2013-04-28 07:30:00,46.9,46.4,30.31,East,90,0.0,0.0,98,0.00,CLR,,0.00,WeatherDisplay:10.37,2013-04-28 11:30:00,
2013-04-28 07:45:00,52.0,50.9,30.31,East,90,0.0,0.0,96,0.00,CLR,,0.00,WeatherDisplay:10.37,2013-04-28 11:45:00,
2013-04-28 08:00:00,55.6,51.8,30.31,ESE,119,0.0,0.0,87,0.00,CLR,,0.00,WeatherDisplay:10.37,2013-04-28 12:00:00,
2013-04-28 08:15:00,57.6,47.5,30.31,SSE,165,0.0,0.0,69,0.00,CLR,,0.00,WeatherDisplay:10.37,2013-04-28 12:15:00,
2013-04-28 08:30:00,58.5,44.6,30.31,SSE,150,1.0,2.0,60,0.00,CLR,,0.00,WeatherDisplay:10.37,2013-04-28 12:30:00,
2013-04-28 08:45:00,60.8,43.6,30.31,ESE,120,1.0,4.0,53,0.00,CLR,,0.00,WeatherDisplay:10.37,2013-04-28 12:45:00,
2013-04-28 09:00:00,61.2,41.8,30.31,East,89,2.0,5.0,49,0.00,CLR,,0.00,WeatherDisplay:10.37,2013-04-28 13:00:00,
2013-04-28 09:15:00,62.4,41.9,30.31,ESE,122,2.0,5.0,47,0.00,CLR,,0.00,WeatherDisplay:10.37,2013-04-28 13:15:00,
2013-04-28 09:30:00,63.3,41.0,30.31,ESE,106,2.0,4.0,44,0.00,CLR,,0.00,WeatherDisplay:10.37,2013-04-28 13:30:00,
2013-04-28 09:45:00,64.4,40.2,30.31,ESE,122,3.0,5.0,41,0.00,CLR,,0.00,WeatherDisplay:10.37,2013-04-28 13:45:00,
2013-04-28 10:00:00,64.4,38.9,30.31,SE,129,3.0,6.0,39,0.00,CLR,,0.00,WeatherDisplay:10.37,2013-04-28 14:00:00,
2013-04-28 10:15:00,65.5,41.8,30.31,SE,124,5.0,7.0,42,0.00,CLR,,0.00,WeatherDisplay:10.37,2013-04-28 14:15:00,
2013-04-28 10:30:00,65.8,40.2,30.31,East,82,5.0,7.0,39,0.00,CLR,,0.00,WeatherDisplay:10.37,2013-04-28 14:30:00,
2013-04-28 10:45:00,66.2,40.5,30.31,SE,146,6.0,9.0,39,0.00,CLR,,0.00,WeatherDisplay:10.37,2013-04-28 14:45:00,
2013-04-28 11:00:00,68.2,42.3,30.31,ESE,114,6.0,9.0,39,0.00,CLR,,0.00,WeatherDisplay:10.37,2013-04-28 15:00:00,
2013-04-28 11:15:00,68.5,42.6,30.31,SSE,166,6.0,7.0,39,0.00,CLR,,0.00,WeatherDisplay:10.37,2013-04-28 15:15:00,
2013-04-28 11:30:00,70.2,44.0,30.31,ESE,122,7.0,8.0,39,0.00,CLR,,0.00,WeatherDisplay:10.37,2013-04-28 15:30:00,
2013-04-28 11:45:00,69.4,43.4,30.31,ESE,121,6.0,7.0,39,0.00,CLR,,0.00,WeatherDisplay:10.37,2013-04-28 15:45:00,
2013-04-28 12:00:00,69.4,43.4,30.31,SE,131,6.0,9.0,39,0.00,CLR,,0.00,WeatherDisplay:10.37,2013-04-28 16:00:00,
2013-04-28 12:15:00,71.1,44.8,30.31,SE,145,6.0,8.0,39,0.00,CLR,,0.00,WeatherDisplay:10.37,2013-04-28 16:15:00,
2013-04-28 12:30:00,70.0,43.9,30.31,SSE,156,7.0,10.0,39,0.00,CLR,,0.00,WeatherDisplay:10.37,2013-04-28 16:30:00,
2013-04-28 12:45:00,70.2,44.0,30.31,ESE,113,6.0,12.0,39,0.00,CLR,,0.00,WeatherDisplay:10.37,2013-04-28 16:45:00,
2013-04-28 13:00:00,69.8,43.7,30.31,SSE,157,8.0,12.0,39,0.00,CLR,,0.00,WeatherDisplay:10.37,2013-04-28 17:00:00,
2013-04-28 13:15:00,68.0,42.1,30.31,East,96,7.0,8.0,39,0.00,CLR,,0.00,WeatherDisplay:10.37,2013-04-28 17:15:00,
2013-04-28 13:30:00,67.1,41.3,30.31,SE,124,8.0,13.0,39,0.00,CLR,,0.00,WeatherDisplay:10.37,2013-04-28 17:30:00,
2013-04-28 13:45:00,68.2,42.3,30.28,East,93,9.0,12.0,39,0.00,CLR,,0.00,WeatherDisplay:10.37,2013-04-28 17:45:00,
2013-04-28 14:00:00,68.0,42.1,30.28,East,84,8.0,10.0,39,0.00,CLR,,0.00,WeatherDisplay:10.37,2013-04-28 18:00:00,
2013-04-28 14:15:00,68.4,42.4,30.28,East,90,7.0,9.0,39,0.00,CLR,,0.00,WeatherDisplay:10.37,2013-04-28 18:15:00,
2013-04-28 14:30:00,69.1,43.1,30.28,ESE,111,8.0,10.0,39,0.00,CLR,,0.00,WeatherDisplay:10.37,2013-04-28 18:30:00,
2013-04-28 14:45:00,69.1,43.1,30.28,SE,132,6.0,6.0,39,0.00,CLR,,0.00,WeatherDisplay:10.37,2013-04-28 18:45:00,
2013-04-28 15:00:00,69.1,43.1,30.28,SE,133,7.0,9.0,39,0.00,CLR,,0.00,WeatherDisplay:10.37,2013-04-28 19:00:00,
2013-04-28 15:15:00,67.5,41.6,30.28,ESE,109,6.0,9.0,39,0.00,CLR,,0.00,WeatherDisplay:10.37,2013-04-28 19:15:00,
2013-04-28 15:30:00,67.5,41.6,30.28,SSE,150,7.0,10.0,39,0.00,CLR,,0.00,WeatherDisplay:10.37,2013-04-28 19:30:00,
2013-04-28 15:45:00,66.4,40.7,30.28,SE,145,7.0,12.0,39,0.00,CLR,,0.00,WeatherDisplay:10.37,2013-04-28 19:45:00,
2013-04-28 16:00:00,64.9,39.4,30.25,East,89,5.0,10.0,39,0.00,CLR,,0.00,WeatherDisplay:10.37,2013-04-28 20:00:00,
2013-04-28 16:15:00,62.4,37.1,30.28,SE,138,6.0,11.0,39,0.00,CLR,,0.00,WeatherDisplay:10.37,2013-04-28 20:15:00,
2013-04-28 16:30:00,61.9,36.6,30.25,SE,124,8.0,10.0,39,0.00,CLR,,0.00,WeatherDisplay:10.37,2013-04-28 20:30:00,
2013-04-28 16:45:00,62.2,37.0,30.25,SE,131,7.0,8.0,39,0.00,CLR,,0.00,WeatherDisplay:10.37,2013-04-28 20:45:00,
2013-04-28 17:00:00,63.7,38.2,30.25,SE,142,6.0,8.0,39,0.00,CLR,,0.00,WeatherDisplay:10.37,2013-04-28 21:00:00,
2013-04-28 17:15:00,63.7,38.2,30.22,ESE,112,7.0,12.0,39,0.00,CLR,,0.00,WeatherDisplay:10.37,2013-04-28 21:15:00,
2013-04-28 17:30:00,63.0,37.6,30.22,East,97,5.0,6.0,39,0.00,CLR,,0.00,WeatherDisplay:10.37,2013-04-28 21:30:00,
2013-04-28 17:45:00,62.6,37.3,30.22,ESE,111,5.0,9.0,39,0.00,CLR,,0.00,WeatherDisplay:10.37,2013-04-28 21:45:00,
2013-04-28 18:00:00,62.4,37.1,30.22,ESE,112,6.0,9.0,39,0.00,CLR,,0.00,WeatherDisplay:10.37,2013-04-28 22:00:00,
2013-04-28 18:15:00,61.2,36.0,30.22,ESE,109,3.0,7.0,39,0.00,CLR,,0.00,WeatherDisplay:10.37,2013-04-28 22:15:00,
2013-04-28 18:30:00,59.7,34.7,30.22,SE,126,3.0,7.0,39,0.00,CLR,,0.00,WeatherDisplay:10.37,2013-04-28 22:30:00,
2013-04-28 18:45:00,58.5,34.2,30.22,ESE,119,3.0,7.0,40,0.00,CLR,,0.00,WeatherDisplay:10.37,2013-04-28 22:45:00,
2013-04-28 19:00:00,57.7,36.0,30.22,ESE,116,2.0,4.0,44,0.00,CLR,,0.00,WeatherDisplay:10.37,2013-04-28 23:00:00,
2013-04-28 19:15:00,56.8,36.8,30.22,ESE,114,0.0,1.0,47,0.00,FEW,,0.00,WeatherDisplay:10.37,2013-04-28 23:15:00,
2013-04-28 19:30:00,56.5,38.1,30.22,East,96,2.0,5.0,50,0.00,FEW,,0.00,WeatherDisplay:10.37,2013-04-28 23:30:00,
2013-04-28 19:45:00,55.9,37.6,30.22,East,79,2.0,6.0,50,0.00,BKN,,0.00,WeatherDisplay:10.37,2013-04-28 23:45:00,
2013-04-28 20:00:00,55.4,37.6,30.22,East,85,2.0,6.0,51,0.00,OVC,,0.00,WeatherDisplay:10.37,2013-04-29 00:00:00,
2013-04-28 20:15:00,55.0,38.2,30.19,East,95,1.0,6.0,53,0.00,OVC,,0.00,WeatherDisplay:10.37,2013-04-29 00:15:00,
2013-04-28 20:30:00,54.9,38.0,30.22,ESE,114,1.0,7.0,53,0.00,BKN,,0.00,WeatherDisplay:10.37,2013-04-29 00:30:00,
2013-04-28 20:45:00,54.9,39.0,30.19,East,96,2.0,6.0,55,0.00,FEW,,0.00,WeatherDisplay:10.37,2013-04-29 00:45:00,
2013-04-28 21:00:00,54.7,40.2,30.19,ESE,119,0.0,1.0,58,0.00,SCT,,0.00,WeatherDisplay:10.37,2013-04-29 01:00:00,
2013-04-28 21:15:00,54.9,41.7,30.22,SE,138,1.0,3.0,61,0.00,SCT,,0.00,WeatherDisplay:10.37,2013-04-29 01:15:00,
2013-04-28 21:30:00,54.9,42.1,30.22,SE,127,0.0,0.0,62,0.00,BKN,,0.00,WeatherDisplay:10.37,2013-04-29 01:30:00,
2013-04-28 21:45:00,54.9,42.5,30.22,East,90,1.0,3.0,63,0.00,BKN,,0.00,WeatherDisplay:10.37,2013-04-29 01:45:00,
2013-04-28 22:00:00,54.9,42.9,30.22,ESE,107,1.0,2.0,64,0.00,BKN,,0.00,WeatherDisplay:10.37,2013-04-29 02:00:00,
2013-04-28 22:15:00,54.7,42.7,30.22,SE,137,0.0,1.0,64,0.00,BKN,,0.00,WeatherDisplay:10.37,2013-04-29 02:15:00,
2013-04-28 22:30:00,54.7,42.7,30.22,SE,137,0.0,0.0,64,0.00,SCT,,0.00,WeatherDisplay:10.37,2013-04-29 02:30:00,
2013-04-28 22:45:00,54.7,42.7,30.22,ESE,121,0.0,0.0,64,0.00,FEW,,0.00,WeatherDisplay:10.37,2013-04-29 02:45:00,
2013-04-28 23:00:00,55.0,43.1,30.22,East,80,1.0,1.0,64,0.00,SCT,,0.00,WeatherDisplay:10.37,2013-04-29 03:00:00,
2013-04-28 23:15:00,55.4,43.4,30.22,ESE,103,2.0,7.0,64,0.00,FEW,,0.00,WeatherDisplay:10.37,2013-04-29 03:15:00,
2013-04-28 23:30:00,55.6,43.6,30.22,SE,125,3.0,7.0,64,0.00,FEW,,0.00,WeatherDisplay:10.37,2013-04-29 03:30:00,
2013-04-28 23:45:00,55.9,43.5,30.22,ESE,122,2.0,6.0,63,0.00,SCT,,0.00,WeatherDisplay:10.37,2013-04-29 03:45:00,